Time;durP1;ratioP1;P1;durP2;ratioP2;P2;SDS_P1;SDS_P2;PMS_P1;PMS_P2;Temp;Humidity;BMP_temperature;BMP_pressure;BME280_temperature;BME280_humidity;BME280_pressure;Samples;Min_cycle;Max_cycle;Signal;HPM_P1;HPM_P2
2022/12/06 00:02:20;;;;;;;49.30;30.00;;;;;;;1.34;86.54;100363.92;100526;1281;138279;-68
2022/12/06 00:04:49;;;;;;;47.00;29.70;;;;;;;1.30;86.61;100364.59;101046;1280;109702;-68
2022/12/06 00:07:17;;;;;;;45.70;28.30;;;;;;;1.25;86.86;100366.23;100557;1279;138386;-68
2022/12/06 00:09:44;;;;;;;46.20;28.20;;;;;;;1.20;87.18;100358.52;100388;1288;96545;-68
2022/12/06 00:12:12;;;;;;;46.60;28.40;;;;;;;1.17;87.25;100359.16;101700;1295;109067;-68
2022/12/06 00:14:39;;;;;;;44.50;28.20;;;;;;;1.15;87.48;100354.38;100605;1288;139356;-68
2022/12/06 00:17:07;;;;;;;44.10;27.40;;;;;;;1.15;87.74;100354.54;100393;1278;109836;-68
2022/12/06 00:19:35;;;;;;;49.70;28.10;;;;;;;1.14;87.98;100347.85;100350;1286;138104;-68
2022/12/06 00:22:02;;;;;;;46.00;27.70;;;;;;;1.16;87.82;100345.98;100524;1279;96981;-67
2022/12/06 00:24:29;;;;;;;43.10;27.70;;;;;;;1.18;88.16;100351.98;100348;1286;108291;-67
2022/12/06 00:26:57;;;;;;;46.80;28.60;;;;;;;1.18;88.20;100349.24;100842;1288;137770;-68
2022/12/06 00:29:25;;;;;;;45.70;27.00;;;;;;;1.19;88.17;100352.67;100398;1286;109591;-68
2022/12/06 00:31:53;;;;;;;43.80;27.20;;;;;;;1.17;88.46;100344.78;100477;1278;138237;-68
2022/12/06 00:34:20;;;;;;;44.60;27.60;;;;;;;1.15;88.41;100339.64;100799;1288;97080;-68
2022/12/06 00:36:48;;;;;;;43.80;27.80;;;;;;;1.13;88.49;100344.08;100518;1288;138071;-68
2022/12/06 00:39:17;;;;;;;44.90;27.10;;;;;;;1.11;88.64;100343.55;101039;1285;96675;-68
2022/12/06 00:41:45;;;;;;;44.00;27.80;;;;;;;1.10;88.62;100348.17;100442;1287;109790;-68
2022/12/06 00:44:13;;;;;;;45.80;28.00;;;;;;;1.10;88.84;100348.34;100644;1293;138384;-68
2022/12/06 00:46:41;;;;;;;44.20;28.00;;;;;;;1.09;88.92;100345.08;100314;1286;96565;-68
2022/12/06 00:49:09;;;;;;;43.10;26.40;;;;;;;1.08;89.02;100340.11;100162;1289;138218;-68
2022/12/06 00:51:37;;;;;;;48.40;27.50;;;;;;;1.07;89.10;100338.55;101632;1288;94691;-68
2022/12/06 00:54:05;;;;;;;48.20;28.70;;;;;;;1.06;89.37;100328.95;100783;1288;108811;-68
2022/12/06 00:56:34;;;;;;;45.70;28.40;;;;;;;1.07;89.67;100329.29;100405;1288;138216;-68
2022/12/06 00:59:02;;;;;;;47.70;29.10;;;;;;;1.05;89.62;100325.33;101423;1278;95168;-68
2022/12/06 01:01:32;;;;;;;52.10;28.00;;;;;;;1.05;89.56;100320.02;101611;1288;137842;-68
2022/12/06 01:04:01;;;;;;;44.60;28.70;;;;;;;1.05;89.73;100316.60;100817;1286;96484;-68
2022/12/06 01:06:31;;;;;;;45.80;28.70;;;;;;;1.06;89.46;100317.11;100534;1286;111437;-68
2022/12/06 01:09:01;;;;;;;46.40;29.10;;;;;;;1.08;89.82;100318.19;101588;1288;137868;-68
2022/12/06 01:11:29;;;;;;;49.20;29.50;;;;;;;1.08;89.66;100310.32;101081;1286;96494;-68
2022/12/06 01:13:57;;;;;;;46.50;28.20;;;;;;;1.10;89.76;100304.16;100728;1286;138265;-68
2022/12/06 01:16:28;;;;;;;46.70;28.50;;;;;;;1.12;89.88;100304.34;101281;1286;96506;-68
2022/12/06 01:18:58;;;;;;;46.70;28.70;;;;;;;1.14;89.98;100306.75;100429;1284;138118;-68
2022/12/06 01:21:26;;;;;;;45.30;28.80;;;;;;;1.15;90.00;100301.96;100504;1288;109301;-68
2022/12/06 01:23:54;;;;;;;46.10;29.10;;;;;;;1.16;89.87;100296.83;100260;1286;96447;-68
2022/12/06 01:26:23;;;;;;;49.20;28.90;;;;;;;1.15;90.08;100288.77;100749;1278;137949;-68
2022/12/06 01:28:50;;;;;;;50.00;29.00;;;;;;;1.14;89.95;100283.98;101578;1281;94455;-68
2022/12/06 01:31:18;;;;;;;47.80;29.40;;;;;;;1.14;90.05;100280.89;101516;1288;139349;-68
2022/12/06 01:33:46;;;;;;;49.90;29.00;;;;;;;1.12;90.21;100283.45;101470;1284;109534;-68
2022/12/06 01:36:20;;;;;;;49.20;29.80;;;;;;;1.10;90.10;100277.96;100651;1279;96962;-68
2022/12/06 01:38:50;;;;;;;48.70;29.70;;;;;;;1.10;90.15;100278.30;100919;1286;138771;-68
2022/12/06 01:41:18;;;;;;;50.90;29.60;;;;;;;1.09;90.35;100280.52;100147;1278;96467;-68
2022/12/06 01:43:46;;;;;;;54.40;31.00;;;;;;;1.07;90.33;100283.25;100536;1285;138472;-68
2022/12/06 01:46:25;;;;;;;49.90;30.10;;;;;;;1.06;90.45;100285.11;100652;1286;108670;-68
2022/12/06 01:48:56;;;;;;;50.80;29.90;;;;;;;1.04;90.47;100277.56;100617;1278;138422;-67
2022/12/06 01:51:24;;;;;;;46.50;30.20;;;;;;;1.03;90.45;100277.55;100848;1286;108349;-68
2022/12/06 01:53:53;;;;;;;50.40;29.80;;;;;;;1.01;90.75;100269.33;101269;1288;94448;-68
2022/12/06 01:56:21;;;;;;;49.70;30.90;;;;;;;1.02;90.84;100262.65;101129;1286;138022;-68
2022/12/06 01:58:52;;;;;;;47.40;29.50;;;;;;;1.03;90.86;100260.43;100238;1285;107423;-68
2022/12/06 02:01:20;;;;;;;50.80;29.70;;;;;;;1.04;90.82;100263.00;100781;1279;138408;-68
2022/12/06 02:03:48;;;;;;;47.10;29.40;;;;;;;1.03;90.95;100264.20;101631;1285;107452;-69
2022/12/06 02:06:15;;;;;;;49.00;29.50;;;;;;;1.03;90.95;100261.98;100688;1286;96466;-68
2022/12/06 02:08:44;;;;;;;54.10;30.20;;;;;;;1.02;91.16;100257.86;100360;1286;137941;-68
2022/12/06 02:11:11;;;;;;;48.00;29.10;;;;;;;1.02;90.95;100253.92;100674;1279;108550;-68
2022/12/06 02:13:39;;;;;;;44.90;28.10;;;;;;;1.03;91.00;100254.95;101313;1278;138164;-68
2022/12/06 02:16:18;;;;;;;51.80;30.30;;;;;;;1.03;91.24;100256.66;100498;1288;106932;-68
2022/12/06 02:18:50;;;;;;;47.70;30.00;;;;;;;1.04;91.32;100255.64;100486;1284;96610;-67
2022/12/06 02:21:32;;;;;;;50.10;29.80;;;;;;;1.05;91.12;100251.88;100471;1286;110137;-68
2022/12/06 02:24:43;;;;;;;51.30;29.10;;;;;;;1.06;91.07;100248.63;101240;1293;108474;-68
2022/12/06 02:27:32;;;;;;;50.80;30.00;;;;;;;1.07;91.02;100246.24;100979;1281;98079;-68
2022/12/06 02:30:17;;;;;;;46.90;29.80;;;;;;;1.08;91.54;100244.55;100333;1280;107590;-68
2022/12/06 02:32:51;;;;;;;50.60;29.60;;;;;;;1.08;91.16;100244.22;100483;1288;138539;-68
2022/12/06 02:35:25;;;;;;;;;;;;;;;1.09;90.94;100243.89;100318;1286;111677;-68
2022/12/06 02:37:57;;;;;;;51.00;31.00;;;;;;;1.10;91.02;100238.92;100228;1286;124349;-68
2022/12/06 02:40:31;;;;;;;51.00;28.50;;;;;;;1.11;91.09;100239.44;100287;1285;96470;-68
2022/12/06 02:43:02;;;;;;;47.40;29.40;;;;;;;1.12;91.02;100235.16;100306;1278;138367;-68
2022/12/06 02:45:33;;;;;;;51.50;29.70;;;;;;;1.12;91.20;100239.27;100894;1288;96461;-68
2022/12/06 02:48:04;;;;;;;49.70;30.10;;;;;;;1.12;91.05;100236.02;100217;1286;110677;-68
2022/12/06 02:50:37;;;;;;;52.00;30.90;;;;;;;1.11;91.19;100228.13;100172;1292;138109;-68
2022/12/06 02:53:07;;;;;;;49.20;29.20;;;;;;;1.09;91.36;100222.14;100377;1288;96470;-68
2022/12/06 02:55:36;;;;;;;52.50;31.00;;;;;;;1.09;91.36;100214.43;100087;1281;138152;-68
2022/12/06 02:58:03;;;;;;;48.20;30.10;;;;;;;1.09;91.41;100208.77;99361;1272;1003340;-68
2022/12/06 03:00:37;;;;;;;49.40;29.70;;;;;;;1.09;91.26;100208.60;100180;1286;110247;-68
2022/12/06 03:03:20;;;;;;;49.50;30.40;;;;;;;1.07;91.35;100204.29;101060;1288;137875;-68
2022/12/06 03:06:05;;;;;;;49.30;29.70;;;;;;;1.06;91.55;100200.69;101155;1292;97145;-68
2022/12/06 03:08:42;;;;;;;50.00;29.20;;;;;;;1.03;91.33;100199.14;100372;1286;137948;-68
2022/12/06 03:11:10;;;;;;;48.20;29.50;;;;;;;1.03;91.58;100193.66;100764;1286;96566;-68
2022/12/06 03:13:47;;;;;;;49.20;30.50;;;;;;;1.02;91.70;100192.96;100448;1285;138299;-68
2022/12/06 03:16:21;;;;;;;53.20;30.90;;;;;;;1.03;91.74;100193.48;101282;1286;108229;-68
2022/12/06 03:18:55;;;;;;;53.20;32.20;;;;;;;1.05;91.68;100200.00;100263;1285;138303;-67
2022/12/06 03:21:27;;;;;;;53.10;30.80;;;;;;;1.06;91.98;100200.01;101635;1282;106704;-68
2022/12/06 03:23:56;;;;;;;54.00;32.00;;;;;;;1.06;91.43;100196.40;100917;1295;94603;-68
2022/12/06 03:26:28;;;;;;;53.10;32.40;;;;;;;1.06;91.85;100191.95;101234;1286;266285;-68
2022/12/06 03:29:00;;;;;;;57.10;33.20;;;;;;;1.04;91.89;100190.41;100065;1285;108139;-68
2022/12/06 03:31:32;;;;;;;55.10;30.90;;;;;;;1.04;91.76;100184.42;100479;1286;138290;-69
2022/12/06 03:34:02;;;;;;;55.50;31.80;;;;;;;1.05;91.82;100185.10;100388;1285;107580;-70
2022/12/06 03:36:31;;;;;;;54.10;32.10;;;;;;;1.06;91.74;100179.80;100428;1287;96465;-70
2022/12/06 03:39:01;;;;;;;57.70;31.80;;;;;;;1.08;91.89;100179.15;100270;1284;137842;-70
2022/12/06 03:41:35;;;;;;;56.60;31.40;;;;;;;1.09;91.72;100182.07;100334;1285;107166;-70
2022/12/06 03:44:03;;;;;;;52.10;31.20;;;;;;;1.09;91.78;100184.30;100244;1288;138232;-70
2022/12/06 03:46:35;;;;;;;51.10;30.50;;;;;;;1.08;91.75;100181.54;100363;1285;107569;-70
2022/12/06 03:49:06;;;;;;;55.30;32.30;;;;;;;1.09;91.90;100181.21;100316;1286;138872;-70
2022/12/06 03:51:36;;;;;;;58.40;32.50;;;;;;;1.09;91.86;100179.16;100293;1294;109963;-70
2022/12/06 03:54:05;;;;;;;56.20;31.60;;;;;;;1.10;92.04;100181.21;100371;1294;105577;-70
2022/12/06 03:56:35;;;;;;;52.20;31.60;;;;;;;1.10;92.09;100179.84;100674;1286;138231;-70
2022/12/06 03:59:04;;;;;;;51.50;30.70;;;;;;;1.08;92.11;100176.23;100751;1278;108993;-69
2022/12/06 04:01:31;;;;;;;53.50;30.90;;;;;;;1.05;92.13;100174.66;100251;1286;138707;-70
2022/12/06 04:03:59;;;;;;;52.50;30.90;;;;;;;1.05;92.19;100166.09;100348;1278;111368;-70
2022/12/06 04:06:27;;;;;;;49.50;30.60;;;;;;;1.04;92.18;100163.53;100309;1280;107621;-69
2022/12/06 04:09:50;;;;;;;53.80;31.40;;;;;;;1.05;92.18;100156.85;101563;1287;139454;-69
2022/12/06 04:11:43;;;;;;;56.40;31.10;;;;;;;1.05;92.24;100159.24;100803;1288;107869;-68
2022/12/06 04:14:10;;;;;;;59.60;30.60;;;;;;;1.03;92.39;100157.88;100260;1283;138126;-68
2022/12/06 04:19:23;;;;;;;55.30;30.30;;;;;;;1.04;92.63;100163.52;100244;1288;138349;-68
2022/12/06 04:24:35;;;;;;;51.30;30.00;;;;;;;1.02;92.69;100155.13;100372;1286;108340;-68
2022/12/06 04:40:47;;;;;;;54.50;30.50;;;;;;;0.94;93.60;100151.16;100404;1286;96454;-70
2022/12/06 04:45:59;;;;;;;55.50;30.80;;;;;;;0.92;93.67;100142.09;100915;1289;107210;-70
2022/12/06 04:48:26;;;;;;;54.50;30.40;;;;;;;0.92;93.76;100140.38;100285;1287;96484;-69
2022/12/06 04:50:53;;;;;;;54.00;30.30;;;;;;;0.91;93.73;100142.42;100074;1285;138119;-69
2022/12/06 04:53:21;;;;;;;57.00;30.20;;;;;;;0.91;94.06;100140.20;100373;1295;96489;-70
2022/12/06 04:55:49;;;;;;;56.50;31.00;;;;;;;0.90;93.90;100138.13;100123;1281;138050;-70
2022/12/06 04:58:16;;;;;;;54.80;30.30;;;;;;;0.91;94.12;100136.09;100184;1288;107493;-69
2022/12/06 05:00:44;;;;;;;53.70;30.40;;;;;;;0.92;93.82;100133.35;100384;1292;96488;-69
2022/12/06 05:03:11;;;;;;;59.20;32.50;;;;;;;0.91;94.27;100131.48;100304;1286;109900;-70
2022/12/06 05:05:39;;;;;;;54.90;29.90;;;;;;;0.90;94.14;100127.02;100341;1280;96466;-71
2022/12/06 05:08:07;;;;;;;54.70;30.50;;;;;;;0.90;94.08;100126.84;100289;1280;138221;-72
2022/12/06 05:10:34;;;;;;;57.30;30.50;;;;;;;0.91;94.18;100122.05;100383;1284;107941;-72
2022/12/06 05:13:02;;;;;;;54.20;30.10;;;;;;;0.91;94.15;100118.80;100307;1288;138309;-71
2022/12/06 05:15:30;;;;;;;56.20;30.30;;;;;;;0.91;94.08;100116.75;100340;1292;108393;-72
2022/12/06 05:17:57;;;;;;;52.00;28.80;;;;;;;0.91;94.23;100112.81;100421;1287;96445;-71
2022/12/06 05:20:25;;;;;;;48.50;29.10;;;;;;;0.90;94.23;100112.45;100114;1286;138036;-70
2022/12/06 05:22:52;;;;;;;51.90;28.80;;;;;;;0.90;94.41;100112.46;100357;1286;107822;-70
2022/12/06 05:25:19;;;;;;;50.80;29.00;;;;;;;0.90;94.44;100108.52;100247;1288;138646;-71
2022/12/06 05:27:47;;;;;;;51.70;28.40;;;;;;;0.90;94.36;100108.17;100461;1292;107457;-70
2022/12/06 05:30:16;;;;;;;53.60;28.30;;;;;;;0.90;94.39;100103.23;100433;1286;96475;-70
2022/12/06 05:32:43;;;;;;;50.10;27.80;;;;;;;0.90;94.49;100088.84;100401;1286;137957;-71
2022/12/06 05:35:11;;;;;;;55.50;28.50;;;;;;;0.90;94.31;100081.64;100435;1286;107625;-69
2022/12/06 05:37:38;;;;;;;52.40;27.90;;;;;;;0.92;94.59;100087.14;100842;1295;138091;-68
2022/12/06 05:40:08;;;;;;;49.80;27.80;;;;;;;0.91;94.39;100088.67;100306;1286;107695;-70
2022/12/06 05:42:35;;;;;;;45.70;26.90;;;;;;;0.90;94.56;100090.02;101198;1296;95023;-70
2022/12/06 05:45:02;;;;;;;47.80;27.40;;;;;;;0.89;94.56;100084.38;100267;1295;137917;-69
2022/12/06 05:47:29;;;;;;;51.50;27.10;;;;;;;0.90;94.60;100088.67;100291;1286;108502;-70
2022/12/06 05:49:57;;;;;;;47.50;27.10;;;;;;;0.90;94.65;100081.30;100317;1286;138132;-70
2022/12/06 05:52:24;;;;;;;50.20;27.20;;;;;;;0.89;94.53;100078.55;101671;1287;107907;-68
2022/12/06 05:54:51;;;;;;;46.90;26.40;;;;;;;0.89;94.57;100076.66;100613;1285;138353;-72
2022/12/06 05:57:19;;;;;;;43.40;25.80;;;;;;;0.89;94.52;100075.29;100358;1279;111044;-69
2022/12/06 05:59:46;;;;;;;46.30;24.40;;;;;;;0.90;94.48;100070.52;100337;1286;108266;-70
2022/12/06 06:02:13;;;;;;;44.50;25.20;;;;;;;0.92;94.44;100070.53;100383;1286;140736;-70
2022/12/06 06:04:40;;;;;;;42.40;24.50;;;;;;;0.96;94.49;100069.17;100440;1292;109565;-68
2022/12/06 06:07:07;;;;;;;42.20;24.00;;;;;;;1.01;94.21;100059.59;100336;1288;138941;-71
2022/12/06 06:09:35;;;;;;;37.90;23.90;;;;;;;1.05;94.42;100054.80;100366;1288;110374;-70
2022/12/06 06:12:02;;;;;;;40.20;24.70;;;;;;;1.09;94.13;100055.19;100830;1292;107061;-69
2022/12/06 06:14:35;;;;;;;40.70;23.40;;;;;;;1.13;94.00;100058.45;100286;1288;138058;-69
2022/12/06 06:17:03;;;;;;;42.10;24.70;;;;;;;1.16;94.18;100067.19;100473;1285;106737;-69
2022/12/06 06:19:30;;;;;;;40.70;24.00;;;;;;;1.17;94.07;100067.87;100382;1292;138108;-69
2022/12/06 06:21:57;;;;;;;43.10;24.40;;;;;;;1.19;93.80;100071.48;100536;1285;109497;-70
2022/12/06 06:24:25;;;;;;;42.50;24.90;;;;;;;1.20;93.91;100077.30;100587;1286;107635;-69
2022/12/06 06:26:52;;;;;;;41.10;23.60;;;;;;;1.22;93.79;100077.13;100172;1291;138783;-68
2022/12/06 06:29:19;;;;;;;39.80;23.60;;;;;;;1.22;93.51;100074.73;100277;1292;105960;-68
2022/12/06 06:31:46;;;;;;;39.40;23.20;;;;;;;1.23;93.60;100078.16;100883;1290;139332;-68
2022/12/06 06:34:14;;;;;;;37.00;23.80;;;;;;;1.23;93.54;100077.13;100692;1292;110756;-68
2022/12/06 06:36:41;;;;;;;37.50;21.40;;;;;;;1.22;93.48;100072.33;100296;1292;109345;-68
2022/12/06 06:39:11;;;;;;;35.30;22.50;;;;;;;1.23;93.49;100071.98;100581;1292;96449;-68
2022/12/06 06:41:39;;;;;;;38.10;21.80;;;;;;;1.22;93.39;100069.92;100349;1295;108015;-68
2022/12/06 06:44:06;;;;;;;38.50;22.60;;;;;;;1.21;93.23;100070.61;100277;1291;138167;-68
2022/12/06 06:46:33;;;;;;;37.20;23.00;;;;;;;1.24;93.53;100068.39;99643;1288;1003098;-70
2022/12/06 06:49:01;;;;;;;35.70;21.70;;;;;;;1.25;93.41;100065.14;100370;1285;138267;-70
2022/12/06 06:51:30;;;;;;;36.30;22.40;;;;;;;1.29;93.48;100066.20;100373;1287;96985;-70
2022/12/06 06:53:57;;;;;;;37.10;21.80;;;;;;;1.34;93.60;100063.12;101328;1289;107442;-71
2022/12/06 06:56:25;;;;;;;38.00;22.60;;;;;;;1.39;93.62;100062.95;100710;1292;139761;-71
2022/12/06 06:58:52;;;;;;;36.20;22.00;;;;;;;1.44;93.49;100065.03;100794;1284;108636;-71
2022/12/06 07:01:21;;;;;;;32.90;21.00;;;;;;;1.47;93.47;100060.92;100814;1289;138769;-70
2022/12/06 07:03:50;;;;;;;37.00;23.30;;;;;;;1.50;93.38;100062.13;101000;1295;94586;-70
2022/12/06 07:06:18;;;;;;;36.40;22.30;;;;;;;1.53;93.28;100059.55;100403;1292;107304;-70
2022/12/06 07:08:46;;;;;;;30.30;19.00;;;;;;;1.55;93.26;100060.92;100151;1285;138221;-70
2022/12/06 07:11:14;;;;;;;34.50;20.00;;;;;;;1.53;92.59;100066.41;100545;1284;110416;-71
2022/12/06 07:13:43;;;;;;;32.20;21.10;;;;;;;1.47;92.29;100062.98;100641;1289;138121;-71
2022/12/06 07:16:16;;;;;;;;;;;;;;;1.41;92.23;100056.27;100536;1294;96454;-70
2022/12/06 07:18:46;;;;;;;31.70;20.00;;;;;;;1.37;92.53;100053.88;101061;1287;108522;-70
2022/12/06 07:21:15;;;;;;;36.20;21.90;;;;;;;1.35;92.64;100050.27;100725;1292;96435;-71
2022/12/06 07:23:43;;;;;;;34.70;21.50;;;;;;;1.30;92.67;100049.24;101035;1295;109397;-71
2022/12/06 07:26:12;;;;;;;36.40;22.10;;;;;;;1.28;92.76;100048.90;100481;1294;141276;-72
2022/12/06 07:28:40;;;;;;;32.00;21.20;;;;;;;1.26;92.78;100048.88;100481;1287;96583;-70
2022/12/06 07:31:14;;;;;;;28.90;18.70;;;;;;;1.24;93.03;100051.09;101470;1285;139294;-70
2022/12/06 07:33:42;;;;;;;28.70;18.00;;;;;;;1.19;92.97;100051.60;100457;1286;96475;-70
2022/12/06 07:36:12;;;;;;;28.10;18.90;;;;;;;1.15;92.85;100050.06;100495;1286;107846;-71
2022/12/06 07:38:40;;;;;;;30.70;19.70;;;;;;;1.12;92.94;100048.17;101445;1300;138608;-72
2022/12/06 07:46:36;;;;;;;33.30;20.10;;;;;;;1.06;93.53;100031.36;100475;1293;97198;-71
2022/12/06 07:49:03;;;;;;;31.70;19.40;;;;;;;1.07;93.61;100025.89;100990;1287;139470;-70
2022/12/06 07:51:31;;;;;;;30.60;19.60;;;;;;;1.09;93.91;100019.23;100621;1286;107867;-70
2022/12/06 07:53:59;;;;;;;29.40;19.10;;;;;;;1.10;94.06;100020.09;100123;1284;1003056;-70
2022/12/06 07:56:26;;;;;;;27.50;18.60;;;;;;;1.14;93.93;100019.57;100298;1284;138503;-70
2022/12/06 07:58:54;;;;;;;27.40;19.40;;;;;;;1.20;94.09;100014.44;101524;1295;94503;-70
2022/12/06 08:01:22;;;;;;;32.70;19.70;;;;;;;1.25;94.03;100021.98;100807;1292;138473;-70
2022/12/06 08:03:50;;;;;;;34.50;20.80;;;;;;;1.30;94.13;100026.13;100910;1286;107561;-70
2022/12/06 08:06:17;;;;;;;32.40;19.90;;;;;;;1.35;93.96;100019.78;101240;1285;95163;-72
2022/12/06 08:08:45;;;;;;;35.00;21.30;;;;;;;1.39;94.04;100016.52;100284;1285;137954;-71
2022/12/06 08:11:12;;;;;;;33.60;20.30;;;;;;;1.37;93.73;100017.72;100613;1286;96461;-70
2022/12/06 08:13:39;;;;;;;28.00;19.30;;;;;;;1.36;93.56;100014.65;100606;1288;138125;-70
2022/12/06 08:16:13;;;;;;;34.60;21.20;;;;;;;1.37;93.55;100019.78;100324;1279;107801;-70
2022/12/06 08:18:51;;;;;;;32.80;20.70;;;;;;;1.38;93.55;100023.55;101173;1294;138983;-70
2022/12/06 08:21:18;;;;;;;31.90;20.50;;;;;;;1.38;93.45;100020.64;101686;1292;106604;-71
2022/12/06 08:23:46;;;;;;;32.30;21.40;;;;;;;1.39;93.50;100022.02;100355;1295;96464;-70
2022/12/06 08:26:18;;;;;;;36.90;21.80;;;;;;;1.41;93.51;100020.29;100104;1289;143261;-71
2022/12/06 08:28:45;;;;;;;34.90;22.70;;;;;;;1.40;93.35;100016.86;101282;1292;109554;-71
2022/12/06 08:31:15;;;;;;;35.90;23.30;;;;;;;1.39;93.24;100012.41;100300;1286;138509;-71
2022/12/06 08:33:43;;;;;;;39.10;24.20;;;;;;;1.37;93.28;100013.96;100989;1286;111735;-73
2022/12/06 08:36:13;;;;;;;36.80;24.10;;;;;;;1.36;93.21;100014.81;100233;1284;96499;-73
2022/12/06 08:38:42;;;;;;;37.50;23.90;;;;;;;1.36;93.12;100015.16;100612;1278;138449;-72
2022/12/06 08:41:54;;;;;;;40.10;24.20;;;;;;;1.38;93.28;100015.84;100344;1286;108041;-72
2022/12/06 08:43:59;;;;;;;40.40;25.80;;;;;;;1.39;93.24;100016.36;100251;1285;138193;-72
2022/12/06 08:46:27;;;;;;;46.60;25.50;;;;;;;1.42;93.40;100015.50;100338;1285;107827;-71
2022/12/06 08:48:55;;;;;;;40.60;25.80;;;;;;;1.46;93.59;100010.39;100290;1286;138293;-70
2022/12/06 08:51:22;;;;;;;39.50;24.30;;;;;;;1.47;93.46;100012.43;100606;1278;111079;-71
2022/12/06 08:53:49;;;;;;;38.70;24.50;;;;;;;1.50;93.50;100010.38;100351;1286;107193;-70
2022/12/06 08:56:17;;;;;;;42.80;25.90;;;;;;;1.50;93.30;100012.78;100257;1279;139296;-70
2022/12/06 08:58:44;;;;;;;42.10;25.20;;;;;;;1.51;93.38;100013.13;100151;1285;107303;-72
2022/12/06 09:01:16;;;;;;;39.50;25.50;;;;;;;1.51;93.35;100013.12;100113;1292;138315;-72
2022/12/06 09:03:44;;;;;;;40.90;25.20;;;;;;;1.50;93.19;100004.22;100253;1285;113786;-72
2022/12/06 09:06:12;;;;;;;41.10;25.30;;;;;;;1.52;93.42;100003.18;100321;1286;107731;-71
2022/12/06 09:08:40;;;;;;;41.70;26.50;;;;;;;1.56;93.42;99999.06;100291;1285;138080;-71
2022/12/06 09:11:08;;;;;;;46.10;27.50;;;;;;;1.59;93.53;99995.80;100391;1286;107168;-72
2022/12/06 09:13:37;;;;;;;43.40;27.10;;;;;;;1.61;93.34;99988.61;100288;1275;138203;-72
2022/12/06 09:16:07;;;;;;;41.30;26.30;;;;;;;1.63;93.23;99984.17;101504;1279;110485;-72
2022/12/06 09:18:35;;;;;;;43.60;27.70;;;;;;;1.63;93.13;99984.52;100501;1284;107844;-72
2022/12/06 09:21:06;;;;;;;44.00;27.00;;;;;;;1.64;93.00;99983.15;100241;1286;137884;-72
2022/12/06 09:23:35;;;;;;;42.90;26.00;;;;;;;1.62;93.11;99980.58;101214;1292;106840;-70
2022/12/06 09:26:02;;;;;;;44.60;26.80;;;;;;;1.62;92.79;99978.70;100230;1285;138036;-70
2022/12/06 09:28:31;;;;;;;42.10;26.00;;;;;;;1.60;92.73;99973.52;100434;1283;110248;-71
2022/12/06 09:30:59;;;;;;;42.70;26.40;;;;;;;1.62;92.89;99975.09;100393;1286;138262;-70
2022/12/06 09:33:26;;;;;;;44.40;26.60;;;;;;;1.61;92.64;99979.20;100480;1285;96917;-69
2022/12/06 09:35:54;;;;;;;42.70;26.30;;;;;;;1.61;92.61;99979.52;100397;1285;108359;-71
2022/12/06 09:38:24;;;;;;;43.30;25.30;;;;;;;1.63;92.67;99975.95;100305;1284;138142;-69
2022/12/06 09:41:09;;;;;;;41.50;24.10;;;;;;;1.65;92.66;99968.75;100420;1286;109703;-70
2022/12/06 09:43:50;;;;;;;41.70;26.00;;;;;;;1.70;92.71;99962.74;100611;1286;138045;-69
2022/12/06 09:46:32;;;;;;;42.80;24.60;;;;;;;1.73;92.74;99955.02;100374;1286;98068;-70
2022/12/06 09:49:29;;;;;;;38.50;23.90;;;;;;;1.78;92.64;99953.30;100254;1286;138381;-68
2022/12/06 09:52:19;;;;;;;43.10;25.30;;;;;;;1.81;92.67;99951.42;100391;1292;96485;-70
2022/12/06 09:55:00;;;;;;;42.70;26.00;;;;;;;1.82;92.44;99947.48;100981;1286;110173;-70
2022/12/06 09:57:36;;;;;;;44.70;25.30;;;;;;;1.84;92.73;99949.88;100265;1286;107896;-69
2022/12/06 10:00:08;;;;;;;42.80;25.40;;;;;;;1.86;92.43;99947.47;100495;1286;96466;-69
2022/12/06 10:02:56;;;;;;;44.10;26.60;;;;;;;1.88;92.76;99947.46;101593;1278;139393;-70
2022/12/06 10:05:52;;;;;;;48.20;27.70;;;;;;;1.93;92.82;99943.50;101108;1288;96463;-69
2022/12/06 10:08:32;;;;;;;46.00;28.40;;;;;;;1.96;92.78;99937.84;100218;1278;137836;-71
2022/12/06 10:11:06;;;;;;;46.20;28.50;;;;;;;2.00;92.68;99931.16;100494;1279;107642;-70
2022/12/06 10:13:51;;;;;;;47.30;28.40;;;;;;;2.00;92.35;99928.76;100253;1286;138466;-70
2022/12/06 10:16:43;;;;;;;47.90;28.70;;;;;;;2.01;92.48;99919.33;100543;1286;106791;-70
2022/12/06 10:19:25;;;;;;;46.10;27.60;;;;;;;2.03;92.60;99905.94;100224;1286;138229;-71
2022/12/06 10:22:02;;;;;;;51.30;30.20;;;;;;;2.05;92.41;99897.86;100409;1284;110379;-70
2022/12/06 10:24:48;;;;;;;53.00;30.30;;;;;;;2.07;92.39;99896.48;100375;1278;107894;-69
2022/12/06 10:27:23;;;;;;;52.50;29.30;;;;;;;2.07;92.37;99892.37;100347;1285;96516;-69
2022/12/06 10:29:57;;;;;;;55.10;30.90;;;;;;;2.06;92.16;99887.40;100519;1278;107557;-70
2022/12/06 10:32:48;;;;;;;57.80;31.90;;;;;;;2.06;92.21;99883.80;100125;1284;139060;-70
2022/12/06 10:35:24;;;;;;;59.30;31.80;;;;;;;2.05;92.14;99881.58;100355;1286;110684;-69
2022/12/06 10:38:11;;;;;;;52.60;31.70;;;;;;;2.07;92.39;99881.73;100536;1284;138577;-69
2022/12/06 10:40:49;;;;;;;59.70;32.40;;;;;;;2.08;92.34;99883.79;100725;1285;95609;-68
2022/12/06 10:43:23;;;;;;;57.30;31.70;;;;;;;2.10;92.28;99880.35;100564;1285;138029;-69
2022/12/06 10:48:55;;;;;;;61.10;32.70;;;;;;;2.06;91.83;99872.48;101396;1289;109464;-70
2022/12/06 10:51:30;;;;;;;58.10;32.80;;;;;;;2.04;91.94;99867.69;100675;1286;106352;-69
2022/12/06 10:54:03;;;;;;;56.50;30.70;;;;;;;2.04;91.99;99857.73;100961;1286;96203;-70
2022/12/06 10:56:34;;;;;;;55.70;30.10;;;;;;;2.06;92.20;99851.90;101168;1272;137838;-69
2022/12/06 10:59:20;;;;;;;52.20;29.90;;;;;;;2.10;92.23;99847.25;101114;1286;96467;-68
2022/12/06 11:01:48;;;;;;;53.70;31.60;;;;;;;2.16;92.41;99844.14;100972;1286;137952;-69
2022/12/06 11:04:24;;;;;;;56.60;30.80;;;;;;;2.21;92.43;99842.75;100997;1286;107964;-69
2022/12/06 11:06:54;;;;;;;50.60;29.10;;;;;;;2.27;92.41;99835.84;101269;1288;94695;-68
2022/12/06 11:09:30;;;;;;;51.90;29.40;;;;;;;2.31;92.30;99835.98;100831;1288;107120;-68
2022/12/06 11:11:58;;;;;;;46.20;27.30;;;;;;;2.32;91.70;99836.33;100772;1286;96454;-68
2022/12/06 11:14:30;;;;;;;45.70;27.00;;;;;;;2.30;91.26;99836.69;100359;1291;137739;-68
2022/12/06 11:17:02;;;;;;;47.40;26.30;;;;;;;2.28;91.36;99832.75;100401;1286;108104;-68
2022/12/06 11:19:33;;;;;;;49.60;28.00;;;;;;;2.31;91.52;99832.91;100923;1278;138061;-68
2022/12/06 11:22:11;;;;;;;45.80;26.60;;;;;;;2.33;91.45;99834.61;100684;1294;107207;-68
2022/12/06 11:24:48;;;;;;;47.90;27.40;;;;;;;2.33;91.16;99832.89;100586;1286;96686;-69
2022/12/06 11:27:21;;;;;;;52.50;28.50;;;;;;;2.34;91.15;99832.91;100622;1289;137849;-67
2022/12/06 11:29:50;;;;;;;51.20;28.60;;;;;;;2.33;90.85;99827.93;100376;1286;108577;-69
2022/12/06 11:32:18;;;;;;;47.00;27.00;;;;;;;2.26;90.72;99826.25;100162;1281;138228;-69
2022/12/06 11:34:51;;;;;;;48.20;27.80;;;;;;;2.22;90.80;99825.24;100507;1285;108063;-68
2022/12/06 11:37:21;;;;;;;49.00;28.10;;;;;;;2.20;90.93;99821.32;100687;1286;139678;-68
2022/12/06 11:39:51;;;;;;;56.60;28.40;;;;;;;2.19;91.19;99821.48;100993;1284;112686;-68
2022/12/06 11:42:23;;;;;;;51.60;28.70;;;;;;;2.21;91.29;99817.20;101055;1287;106547;-69
2022/12/06 11:44:58;;;;;;;50.50;27.20;;;;;;;2.20;91.18;99814.98;100894;1271;138075;-69
2022/12/06 11:47:26;;;;;;;53.60;27.00;;;;;;;2.21;91.22;99807.42;101583;1288;106390;-68
2022/12/06 11:49:56;;;;;;;46.10;25.70;;;;;;;2.23;91.30;99806.38;101103;1288;137827;-69
2022/12/06 11:52:36;;;;;;;47.20;25.20;;;;;;;2.23;91.24;99811.69;101625;1279;110082;-70